Time;durP1;ratioP1;P1;durP2;ratioP2;P2;SDS_P1;SDS_P2;PMS_P1;PMS_P2;Temp;Humidity;BMP_temperature;BMP_pressure;BME280_temperature;BME280_humidity;BME280_pressure;Samples;Min_cycle;Max_cycle;Signal;HPM_P1;HPM_P2
2023/05/18 00:02:25;;;;;;;16.05;8.23;;;;;;;15.69;51.01;99750.59;7346942;19;20025;-69
2023/05/18 00:04:51;;;;;;;19.92;8.18;;;;;;;15.68;50.79;99752.44;7348486;19;20014;-74
2023/05/18 00:07:15;;;;;;;18.67;7.93;;;;;;;15.66;50.82;99751.72;7344631;19;20030;-74
2023/05/18 00:09:40;;;;;;;14.45;7.43;;;;;;;15.65;50.80;99749.19;7344944;19;20014;-73
2023/05/18 00:12:05;;;;;;;17.95;8.15;;;;;;;15.59;51.07;99756.78;7344998;19;20338;-73
2023/05/18 00:14:30;;;;;;;13.02;7.75;;;;;;;15.57;50.83;99752.56;7347578;19;20006;-75
2023/05/18 00:16:55;;;;;;;20.35;8.95;;;;;;;15.54;51.30;99747.44;7343689;19;20082;-71
2023/05/18 00:19:22;;;;;;;18.25;8.05;;;;;;;15.53;51.32;99765.38;7344002;19;20023;-73
2023/05/18 00:21:47;;;;;;;14.75;7.53;;;;;;;15.51;51.15;99753.91;7342660;19;20007;-73
2023/05/18 00:24:16;;;;;;;17.55;8.68;;;;;;;15.49;51.42;99763.94;7343888;19;20092;-73
2023/05/18 00:26:42;;;;;;;17.92;8.05;;;;;;;15.43;51.53;99756.47;7343569;19;20014;-74
2023/05/18 00:29:07;;;;;;;14.15;8.82;;;;;;;15.41;51.51;99761.13;7343431;19;20041;-72
2023/05/18 00:31:37;;;;;;;17.08;8.63;;;;;;;15.38;51.80;99763.22;7343218;19;20025;-73
2023/05/18 00:34:07;;;;;;;11.80;7.95;;;;;;;15.35;52.13;99764.34;7345266;19;20026;-70
2023/05/18 00:36:34;;;;;;;18.58;8.88;;;;;;;15.25;52.31;99758.09;7342003;19;20015;-76
2023/05/18 00:39:00;;;;;;;19.45;9.25;;;;;;;15.26;52.15;99763.31;7343493;19;20112;-73
2023/05/18 00:41:25;;;;;;;16.88;9.68;;;;;;;15.25;52.05;99764.31;7345908;19;20324;-71
2023/05/18 00:43:55;;;;;;;17.98;8.52;;;;;;;15.19;52.61;99758.63;7343953;19;20022;-61
2023/05/18 00:46:22;;;;;;;20.05;8.30;;;;;;;15.17;52.74;99769.50;7344987;19;20022;-72
2023/05/18 00:48:48;;;;;;;16.35;8.35;;;;;;;15.16;52.68;99756.22;7346606;19;20030;-65
2023/05/18 00:51:15;;;;;;;20.75;9.27;;;;;;;15.15;53.08;99757.19;7344271;19;20055;-66
2023/05/18 00:53:41;;;;;;;18.48;8.77;;;;;;;15.17;52.76;99756.09;7341906;19;20021;-64
2023/05/18 00:56:11;;;;;;;16.58;9.27;;;;;;;15.13;53.04;99751.13;7342688;19;20097;-65
2023/05/18 00:58:37;;;;;;;15.10;8.73;;;;;;;15.07;53.30;99755.22;7344772;19;20023;-65
2023/05/18 01:01:02;;;;;;;13.65;8.38;;;;;;;15.04;53.56;99759.97;7345010;19;20041;-64
2023/05/18 01:03:29;;;;;;;15.95;8.50;;;;;;;15.01;53.51;99755.72;7345569;19;20478;-65
2023/05/18 01:05:56;;;;;;;11.40;8.60;;;;;;;14.98;53.50;99763.22;7343800;19;20015;-64
2023/05/18 01:08:23;;;;;;;16.27;8.52;;;;;;;14.95;53.52;99752.75;7345505;19;20017;-64
2023/05/18 01:10:56;;;;;;;15.52;9.20;;;;;;;14.99;53.48;99762.25;7347351;19;20010;-68
2023/05/18 01:13:34;;;;;;;18.77;8.70;;;;;;;14.99;54.12;99759.56;7346201;19;20021;-72
2023/05/18 01:16:05;;;;;;;11.00;7.75;;;;;;;14.97;53.27;99765.06;7346523;19;20029;-70
2023/05/18 01:18:32;;;;;;;15.60;8.77;;;;;;;14.92;53.62;99753.84;7342763;19;20010;-70
2023/05/18 01:21:18;;;;;;;15.85;8.88;;;;;;;14.90;53.52;99759.34;7342129;19;20046;-74
2023/05/18 01:24:16;;;;;;;23.92;8.75;;;;;;;14.94;53.55;99762.63;7343695;19;20043;-73
2023/05/18 01:26:45;;;;;;;14.05;8.88;;;;;;;14.88;53.58;99766.72;7343083;19;20022;-71
2023/05/18 01:29:12;;;;;;;14.75;8.60;;;;;;;14.88;53.93;99758.66;7343897;19;20112;-71
2023/05/18 01:31:43;;;;;;;15.15;8.18;;;;;;;14.86;53.59;99760.63;7342897;19;20029;-71
2023/05/18 01:34:10;;;;;;;13.05;9.05;;;;;;;14.90;53.67;99762.03;7343622;19;20015;-70
2023/05/18 01:36:37;;;;;;;15.27;8.10;;;;;;;14.86;54.06;99760.63;7344800;19;20086;-70
2023/05/18 01:39:04;;;;;;;21.98;8.45;;;;;;;14.85;53.81;99766.97;7343762;19;20011;-71
2023/05/18 01:41:33;;;;;;;13.75;8.60;;;;;;;14.85;54.04;99763.44;7344376;19;20061;-70
2023/05/18 01:44:35;;;;;;;11.88;7.85;;;;;;;14.88;53.46;99758.66;7343731;19;20085;-65
2023/05/18 01:47:09;;;;;;;15.15;8.82;;;;;;;14.89;54.08;99759.53;7341803;19;20318;-68
2023/05/18 01:49:36;;;;;;;;;;;;;;;14.96;52.28;99762.50;7346272;19;20037;-66
2023/05/18 01:52:05;;;;;;;20.25;8.23;;;;;;;14.86;53.95;99760.63;7346587;19;19930;-62
2023/05/18 01:54:32;;;;;;;16.85;8.30;;;;;;;14.83;53.70;99763.56;7343331;19;20029;-62
2023/05/18 01:56:58;;;;;;;16.35;7.25;;;;;;;14.85;53.89;99766.13;7343403;19;20030;-63
2023/05/18 01:59:23;;;;;;;14.90;8.95;;;;;;;14.88;53.66;99774.78;7340892;19;20654;-61
2023/05/18 02:01:48;;;;;;;14.55;8.25;;;;;;;14.93;53.47;99774.34;7342077;19;20343;-63
2023/05/18 02:04:14;;;;;;;15.55;8.73;;;;;;;14.96;53.77;99773.25;7338656;19;20026;-60
2023/05/18 02:06:39;;;;;;;15.90;7.93;;;;;;;14.98;53.44;99765.91;7342533;19;20571;-61
2023/05/18 02:09:07;;;;;;;12.85;7.68;;;;;;;15.05;53.20;99772.44;7338579;19;20041;-61
2023/05/18 02:11:34;;;;;;;12.27;7.78;;;;;;;15.08;53.34;99777.53;7335907;19;20055;-63
2023/05/18 02:14:00;;;;;;;14.48;7.57;;;;;;;15.09;53.40;99773.88;7341472;19;20025;-62
2023/05/18 02:16:25;;;;;;;15.98;7.45;;;;;;;15.13;53.18;99777.97;7340061;19;20015;-62
2023/05/18 02:18:51;;;;;;;13.57;7.88;;;;;;;15.21;52.97;99778.16;7338540;19;20354;-62
2023/05/18 02:21:16;;;;;;;14.10;7.88;;;;;;;15.25;52.99;99784.94;7339225;19;20028;-62
2023/05/18 02:23:41;;;;;;;15.13;8.45;;;;;;;15.32;52.79;99780.75;7338175;19;20022;-62
2023/05/18 02:26:05;;;;;;;19.05;8.35;;;;;;;15.38;52.58;99777.50;7335385;19;20457;-62
2023/05/18 02:28:30;;;;;;;19.05;8.27;;;;;;;15.45;52.29;99781.34;7341816;19;20023;-67
2023/05/18 02:31:06;;;;;;;13.90;7.75;;;;;;;15.60;51.93;99774.63;7339468;19;20021;-62
2023/05/18 02:33:43;;;;;;;11.05;7.10;;;;;;;15.65;51.72;99770.69;7343820;19;20025;-63
2023/05/18 02:36:12;;;;;;;18.02;8.48;;;;;;;15.78;51.57;99766.75;7341695;19;20053;-63
2023/05/18 02:38:41;;;;;;;18.42;7.50;;;;;;;15.85;51.16;99775.94;7342822;19;20011;-69
2023/05/18 02:41:06;;;;;;;12.82;7.45;;;;;;;15.89;51.18;99769.31;7337866;19;20019;-66
2023/05/18 02:43:31;;;;;;;11.27;7.15;;;;;;;15.98;50.97;99768.44;7338370;19;20100;-73
2023/05/18 02:46:02;;;;;;;12.15;7.60;;;;;;;16.02;51.14;99769.03;7341954;19;20019;-69
2023/05/18 02:48:27;;;;;;;13.85;7.45;;;;;;;16.09;51.15;99763.91;7341452;19;20354;-69
2023/05/18 02:50:52;;;;;;;13.98;7.65;;;;;;;16.13;51.01;99766.19;7340040;19;20387;-65
2023/05/18 02:53:20;;;;;;;16.10;7.25;;;;;;;16.18;50.75;99757.69;7337444;19;20020;-65
2023/05/18 02:55:47;;;;;;;13.25;8.13;;;;;;;16.27;50.63;99768.44;7338858;19;20481;-64
2023/05/18 02:58:24;;;;;;;13.88;7.32;;;;;;;16.38;50.33;99756.66;7341731;19;20021;-66
2023/05/18 03:01:07;;;;;;;18.02;9.18;;;;;;;16.44;50.12;99757.94;7339292;19;20565;-68
2023/05/18 03:03:40;;;;;;;12.98;7.63;;;;;;;16.55;50.06;99755.94;7339519;19;20338;-66
2023/05/18 03:06:07;;;;;;;15.18;7.28;;;;;;;16.67;50.07;99759.34;7339399;19;20081;-66
2023/05/18 03:08:35;;;;;;;11.70;7.35;;;;;;;16.77;49.81;99754.78;7350090;19;20014;-64
2023/05/18 03:11:01;;;;;;;14.88;8.60;;;;;;;16.87;49.42;99760.13;7347803;19;20019;-64
2023/05/18 03:13:27;;;;;;;13.40;8.23;;;;;;;16.94;49.60;99762.09;7348653;19;20011;-69
2023/05/18 03:15:55;;;;;;;15.85;8.65;;;;;;;17.04;49.42;99756.69;7348768;19;20028;-68
2023/05/18 03:18:23;;;;;;;16.67;7.93;;;;;;;17.18;49.17;99763.41;7349211;19;20018;-67
2023/05/18 03:20:50;;;;;;;16.75;8.38;;;;;;;17.25;49.09;99756.44;7344571;19;20010;-67
2023/05/18 03:23:15;;;;;;;13.48;8.38;;;;;;;17.32;49.28;99761.09;7346072;19;20022;-66
2023/05/18 03:25:43;;;;;;;15.70;8.38;;;;;;;17.41;49.25;99768.25;7347842;19;20434;-69
2023/05/18 03:28:08;;;;;;;12.20;8.65;;;;;;;17.48;49.44;99767.69;7346059;19;20027;-65
2023/05/18 03:30:34;;;;;;;14.65;7.60;;;;;;;17.55;48.97;99772.31;7347948;19;20478;-66
2023/05/18 03:33:01;;;;;;;15.93;8.75;;;;;;;17.68;48.79;99777.38;7347344;19;20022;-64
2023/05/18 03:35:29;;;;;;;14.40;8.13;;;;;;;17.84;47.94;99774.00;7347433;19;20074;-66
2023/05/18 03:38:01;;;;;;;21.60;8.27;;;;;;;17.98;47.63;99768.06;7349505;19;20015;-65
2023/05/18 03:40:26;;;;;;;12.18;7.40;;;;;;;18.13;47.69;99774.63;7347707;19;20022;-69
2023/05/18 03:42:51;;;;;;;17.58;7.90;;;;;;;18.28;47.19;99767.69;7341138;19;20018;-66
2023/05/18 03:45:16;;;;;;;16.13;8.85;;;;;;;18.43;46.94;99781.47;7344996;19;20010;-66
2023/05/18 03:47:43;;;;;;;14.63;7.70;;;;;;;18.59;46.67;99783.50;7343879;19;20014;-66
2023/05/18 03:50:10;;;;;;;14.63;7.57;;;;;;;18.69;45.61;99778.84;7343412;19;20018;-67
2023/05/18 03:52:35;;;;;;;10.63;7.57;;;;;;;18.75;45.49;99778.19;7343577;19;20043;-66
2023/05/18 03:55:04;;;;;;;11.20;7.28;;;;;;;18.88;45.51;99777.75;7343550;19;20382;-67
2023/05/18 03:57:32;;;;;;;12.35;7.38;;;;;;;19.06;45.13;99786.69;7343482;19;20015;-66
2023/05/18 03:59:59;;;;;;;13.82;6.80;;;;;;;19.12;44.97;99781.47;7342827;19;20052;-66
2023/05/18 04:02:24;;;;;;;12.07;7.38;;;;;;;19.25;44.81;99785.59;7340967;19;20018;-66
2023/05/18 04:04:52;;;;;;;23.65;7.78;;;;;;;19.39;44.83;99785.84;7344566;19;20015;-66
2023/05/18 04:07:17;;;;;;;13.43;7.38;;;;;;;19.54;44.72;99786.91;7340998;19;20473;-66
2023/05/18 04:09:43;;;;;;;12.13;7.10;;;;;;;19.71;43.95;99782.44;7344232;19;20584;-66
2023/05/18 04:12:08;;;;;;;23.27;8.35;;;;;;;19.85;43.71;99779.09;7342767;19;20022;-66
2023/05/18 04:14:34;;;;;;;15.07;7.25;;;;;;;20.05;43.71;99785.03;7342139;19;20022;-66
2023/05/18 04:17:05;;;;;;;13.02;6.93;;;;;;;20.19;43.29;99780.84;7344353;19;20070;-66
2023/05/18 04:19:31;;;;;;;10.63;6.55;;;;;;;20.37;42.98;99784.25;7339660;19;20025;-66
2023/05/18 04:21:56;;;;;;;14.38;7.10;;;;;;;20.53;42.58;99783.41;7340970;19;20011;-67
2023/05/18 04:24:27;;;;;;;14.70;7.53;;;;;;;20.62;42.42;99780.53;7341793;19;20081;-67
2023/05/18 04:26:54;;;;;;;15.32;7.07;;;;;;;20.88;41.94;99783.00;7341946;19;20010;-66
2023/05/18 04:29:24;;;;;;;14.98;6.75;;;;;;;21.14;41.29;99779.22;7343867;19;20037;-67
2023/05/18 04:31:52;;;;;;;12.73;7.97;;;;;;;21.42;40.32;99780.53;7341806;19;20015;-65
2023/05/18 04:34:19;;;;;;;14.75;7.60;;;;;;;21.70;39.95;99778.19;7345282;19;20021;-66
2023/05/18 04:36:48;;;;;;;14.88;7.57;;;;;;;22.12;39.21;99777.81;7341189;19;20019;-66
2023/05/18 04:39:13;;;;;;;10.02;6.20;;;;;;;22.60;38.72;99771.13;7341424;19;20466;-65
2023/05/18 04:41:40;;;;;;;13.85;6.90;;;;;;;23.04;37.56;99779.38;7340407;19;20018;-67
2023/05/18 04:44:08;;;;;;;12.95;6.07;;;;;;;23.31;36.93;99775.19;7341184;19;20541;-66
2023/05/18 04:46:38;;;;;;;9.98;6.85;;;;;;;23.53;36.39;99778.84;7341333;19;20491;-66
2023/05/18 04:49:06;;;;;;;11.68;6.28;;;;;;;23.73;35.97;99776.38;7344972;19;20035;-65
2023/05/18 04:51:33;;;;;;;8.30;6.85;;;;;;;24.06;35.68;99780.31;7341442;19;20031;-66
2023/05/18 04:53:58;;;;;;;14.60;7.20;;;;;;;24.06;35.58;99769.41;7345050;19;20022;-67
2023/05/18 04:56:23;;;;;;;13.93;6.70;;;;;;;24.13;34.44;99767.63;7344402;19;20023;-67
2023/05/18 04:58:49;;;;;;;12.90;6.82;;;;;;;24.36;34.47;99772.06;7347812;19;20025;-67
2023/05/18 05:01:15;;;;;;;17.20;6.97;;;;;;;24.60;33.74;99763.50;7345779;19;20024;-65
2023/05/18 05:03:41;;;;;;;13.55;6.55;;;;;;;24.86;33.39;99760.09;7342286;19;20022;-65
2023/05/18 05:06:07;;;;;;;12.18;6.97;;;;;;;25.05;32.43;99764.91;7340276;19;20489;-68
2023/05/18 05:08:36;;;;;;;11.75;6.60;;;;;;;24.80;32.90;99769.09;7340717;19;20088;-66
2023/05/18 05:11:01;;;;;;;10.90;6.40;;;;;;;24.65;32.64;99761.00;7344260;19;20011;-66
2023/05/18 05:13:26;;;;;;;9.20;6.60;;;;;;;24.69;32.62;99764.19;7343066;19;20029;-65
2023/05/18 05:15:51;;;;;;;12.05;6.53;;;;;;;24.68;32.97;99762.50;7342968;19;20014;-66
2023/05/18 05:18:20;;;;;;;8.90;6.20;;;;;;;24.84;33.24;99763.03;7342301;19;20018;-67
2023/05/18 05:20:45;;;;;;;12.25;7.43;;;;;;;25.19;32.13;99771.28;7344030;19;20019;-66
2023/05/18 05:23:10;;;;;;;14.40;6.28;;;;;;;25.52;32.07;99761.38;7341804;19;20003;-67
2023/05/18 05:25:39;;;;;;;14.30;7.53;;;;;;;25.60;31.81;99766.72;7340584;19;20018;-65
2023/05/18 05:28:04;;;;;;;12.00;6.85;;;;;;;25.60;31.64;99760.38;7342201;19;20464;-67
2023/05/18 05:30:30;;;;;;;11.13;6.10;;;;;;;25.80;31.28;99768.66;7339056;19;20117;-66
2023/05/18 05:32:55;;;;;;;8.65;6.75;;;;;;;26.24;31.13;99766.25;7339709;19;20018;-65
2023/05/18 05:35:20;;;;;;;9.68;6.03;;;;;;;26.85;30.47;99768.84;7339727;19;20036;-65
2023/05/18 05:37:48;;;;;;;8.95;6.75;;;;;;;27.16;30.20;99764.63;7339961;19;20018;-66
2023/05/18 05:40:13;;;;;;;8.88;6.70;;;;;;;27.33;28.88;99769.41;7341732;19;20045;-65
2023/05/18 05:42:45;;;;;;;11.63;6.50;;;;;;;27.21;29.10;99760.16;7338736;19;20061;-67
2023/05/18 05:45:10;;;;;;;17.40;6.55;;;;;;;27.20;29.17;99763.97;7341511;19;20010;-66
2023/05/18 05:47:56;;;;;;;13.82;6.32;;;;;;;27.79;28.54;99763.78;7340323;19;20014;-66
2023/05/18 05:50:22;;;;;;;7.95;6.05;;;;;;;27.92;28.30;99754.66;7339591;19;20037;-65
2023/05/18 05:52:48;;;;;;;12.27;6.25;;;;;;;28.52;27.62;99756.00;7339739;19;20019;-64
2023/05/18 05:57:46;;;;;;;8.80;5.93;;;;;;;29.90;25.81;99755.63;7339241;19;20015;-65
2023/05/18 06:00:12;;;;;;;11.77;6.13;;;;;;;30.17;25.91;99756.09;7339707;19;20042;-65
2023/05/18 06:02:47;;;;;;;9.90;6.15;;;;;;;30.93;24.85;99753.38;7340981;19;20411;-66
2023/05/18 06:05:13;;;;;;;9.55;6.00;;;;;;;31.56;23.95;99760.91;7341773;19;20025;-67
2023/05/18 06:07:39;;;;;;;9.52;6.50;;;;;;;31.98;23.66;99760.69;7340951;19;20014;-65
2023/05/18 06:10:06;;;;;;;14.50;5.90;;;;;;;31.79;23.65;99762.78;7341763;19;20122;-65
2023/05/18 06:12:30;;;;;;;16.17;6.10;;;;;;;32.45;23.41;99751.13;7342626;19;20081;-68
2023/05/18 06:14:58;;;;;;;8.27;5.97;;;;;;;33.20;22.63;99747.06;7340693;19;20078;-66
2023/05/18 06:17:25;;;;;;;10.05;5.90;;;;;;;33.88;22.04;99760.44;7344517;19;20022;-65
2023/05/18 06:19:55;;;;;;;9.02;5.65;;;;;;;33.88;21.33;99754.09;7341018;19;20027;-66
2023/05/18 06:22:21;;;;;;;9.90;6.20;;;;;;;33.28;21.80;99760.50;7336971;19;20484;-67
2023/05/18 06:25:07;;;;;;;13.50;6.65;;;;;;;33.22;22.16;99749.56;7338888;19;20037;-66
2023/05/18 06:27:50;;;;;;;12.48;6.43;;;;;;;33.32;21.86;99753.34;7338579;19;20114;-66
2023/05/18 06:30:43;;;;;;;;;;;;;;;34.69;22.02;99759.63;7340102;19;20042;-66
2023/05/18 06:33:13;;;;;;;17.77;6.75;;;;;;;34.91;20.90;99755.69;7338539;19;19926;-67
2023/05/18 06:35:41;;;;;;;12.32;6.03;;;;;;;35.40;20.31;99761.00;7339194;19;20306;-66
2023/05/18 06:38:07;;;;;;;13.18;6.60;;;;;;;35.72;19.90;99755.31;7340047;19;20014;-67
2023/05/18 06:40:33;;;;;;;14.30;5.68;;;;;;;35.92;19.68;99754.59;7338482;19;20033;-68
2023/05/18 06:42:58;;;;;;;12.43;6.15;;;;;;;35.22;20.06;99747.56;7343786;19;20007;-67
2023/05/18 06:45:33;;;;;;;7.32;5.70;;;;;;;35.10;19.97;99753.34;7347918;19;20018;-67
2023/05/18 06:48:08;;;;;;;15.18;7.30;;;;;;;34.01;21.35;99759.22;7346392;19;20778;-67
2023/05/18 06:50:35;;;;;;;6.60;5.95;;;;;;;34.02;21.21;99752.59;7346323;19;20021;-66
2023/05/18 06:53:01;;;;;;;7.13;6.10;;;;;;;34.34;20.72;99743.53;7344668;19;20033;-68
2023/05/18 06:55:28;;;;;;;6.88;5.30;;;;;;;34.20;20.58;99745.88;7345077;19;20018;-67
2023/05/18 06:57:57;;;;;;;6.15;5.22;;;;;;;34.49;20.72;99751.97;7346693;19;20473;-67
2023/05/18 07:00:22;;;;;;;8.40;5.60;;;;;;;35.03;19.96;99749.94;7350672;19;20059;-66
2023/05/18 07:02:48;;;;;;;11.07;5.72;;;;;;;36.09;19.15;99752.44;7346390;19;20021;-67
2023/05/18 07:05:15;;;;;;;8.63;6.10;;;;;;;37.33;18.44;99756.66;7345979;19;20014;-66
2023/05/18 07:07:40;;;;;;;10.50;5.90;;;;;;;37.31;18.49;99758.88;7344098;19;20034;-67
2023/05/18 07:10:06;;;;;;;14.68;6.30;;;;;;;38.29;17.79;99757.34;7345336;19;20014;-66
2023/05/18 07:12:31;;;;;;;6.95;6.25;;;;;;;39.30;16.46;99762.06;7347069;19;20027;-67
2023/05/18 07:14:57;;;;;;;6.38;5.78;;;;;;;40.29;16.21;99755.84;7349787;19;20018;-67
2023/05/18 07:17:23;;;;;;;6.55;5.82;;;;;;;40.52;15.90;99758.50;7346613;19;20007;-67
2023/05/18 07:19:50;;;;;;;7.85;6.18;;;;;;;39.37;16.61;99750.56;7350346;19;20025;-67
2023/05/18 07:22:15;;;;;;;7.75;6.95;;;;;;;38.95;16.62;99754.88;7343969;19;20086;-67
2023/05/18 07:24:42;;;;;;;15.55;7.05;;;;;;;36.79;17.90;99756.44;7344144;19;20022;-65
2023/05/18 07:27:06;;;;;;;8.77;6.35;;;;;;;34.56;19.80;99747.88;7345828;19;20022;-65
2023/05/18 07:29:31;;;;;;;9.00;6.05;;;;;;;33.06;20.38;99748.53;7347161;19;20011;-66
2023/05/18 07:31:56;;;;;;;13.68;6.13;;;;;;;32.51;21.12;99754.78;7346031;19;20025;-66
2023/05/18 07:34:25;;;;;;;7.07;5.88;;;;;;;33.31;20.56;99759.97;7346345;19;20573;-65
2023/05/18 07:36:50;;;;;;;6.65;5.30;;;;;;;33.81;19.89;99754.31;7345439;19;20015;-66
2023/05/18 07:39:18;;;;;;;6.47;5.25;;;;;;;35.10;18.89;99749.72;7345259;19;20046;-66
2023/05/18 07:41:45;;;;;;;7.15;5.70;;;;;;;36.67;17.98;99742.81;7342530;19;20034;-67
2023/05/18 07:44:18;;;;;;;11.55;6.55;;;;;;;38.81;17.13;99745.53;7345854;19;20014;-65
2023/05/18 07:46:43;;;;;;;8.45;6.70;;;;;;;39.85;16.35;99752.22;7343332;19;20036;-67
2023/05/18 07:51:40;;;;;;;7.50;6.80;;;;;;;42.44;14.35;99760.69;7345143;19;20594;-66
2023/05/18 07:54:08;;;;;;;8.00;6.63;;;;;;;42.54;14.10;99752.84;7341834;19;20018;-67
2023/05/18 07:56:33;;;;;;;7.85;6.85;;;;;;;41.59;14.64;99751.03;7344441;19;20026;-66
2023/05/18 07:59:00;;;;;;;10.93;7.00;;;;;;;41.45;14.60;99752.97;7342747;19;20018;-66
2023/05/18 08:01:28;;;;;;;8.20;7.35;;;;;;;40.49;14.48;99758.31;7341992;19;20018;-66
2023/05/18 08:03:56;;;;;;;7.65;6.57;;;;;;;40.47;14.95;99750.22;7344123;19;20025;-66
2023/05/18 08:06:25;;;;;;;8.57;7.45;;;;;;;41.28;15.11;99745.22;7344715;19;20010;-65
2023/05/18 08:08:55;;;;;;;9.07;7.85;;;;;;;43.03;14.40;99847.25;7342514;19;20019;-66
2023/05/18 08:11:23;;;;;;;10.68;8.30;;;;;;;44.60;13.34;99838.31;7344263;19;20014;-66
2023/05/18 08:13:54;;;;;;;9.10;7.68;;;;;;;45.81;12.88;99838.94;7342549;19;20018;-67
2023/05/18 08:16:19;;;;;;;11.15;9.73;;;;;;;46.61;12.56;99817.22;7344433;19;20158;-66
2023/05/18 08:18:44;;;;;;;10.27;9.25;;;;;;;47.64;11.66;99833.09;7343749;19;20042;-66
2023/05/18 08:21:09;;;;;;;11.45;10.55;;;;;;;48.26;11.24;99837.63;7345208;19;20022;-67
2023/05/18 08:23:35;;;;;;;11.02;10.02;;;;;;;48.08;10.90;99832.56;7346740;19;20098;-66
2023/05/18 08:26:02;;;;;;;11.52;10.35;;;;;;;48.26;10.74;99825.47;7341889;19;20007;-67
2023/05/18 08:28:31;;;;;;;11.60;10.70;;;;;;;49.07;10.95;99796.78;7344155;19;20047;-67
2023/05/18 08:30:56;;;;;;;13.68;12.55;;;;;;;49.46;11.30;99828.19;7342975;19;20018;-66
2023/05/18 08:33:22;;;;;;;13.80;12.68;;;;;;;47.99;10.73;99798.75;7342050;19;20023;-66
2023/05/18 08:35:47;;;;;;;13.93;12.82;;;;;;;46.96;10.96;99818.56;7343399;19;20352;-65
2023/05/18 08:38:11;;;;;;;13.10;12.20;;;;;;;46.45;11.34;99807.72;7344106;19;20045;-66
2023/05/18 08:41:04;;;;;;;12.43;11.55;;;;;;;46.68;11.82;99792.13;7341516;19;20022;-65
2023/05/18 08:43:34;;;;;;;12.02;11.20;;;;;;;46.57;11.78;99816.25;7341886;19;20014;-66
2023/05/18 08:46:06;;;;;;;14.07;12.98;;;;;;;46.71;11.54;99816.00;7342819;19;20010;-66
2023/05/18 08:48:39;;;;;;;13.98;12.52;;;;;;;46.27;11.77;99807.06;7341744;19;20025;-67
2023/05/18 08:51:06;;;;;;;16.00;14.63;;;;;;;46.50;11.55;99813.19;7345008;19;20078;-67
2023/05/18 08:53:32;;;;;;;13.48;12.35;;;;;;;46.53;11.64;99812.47;7342830;19;20014;-68
2023/05/18 08:56:00;;;;;;;12.88;11.80;;;;;;;46.35;11.42;99779.94;7341128;19;20311;-67
2023/05/18 08:58:44;;;;;;;14.98;13.55;;;;;;;47.42;11.69;99822.25;7341534;19;20020;-67
2023/05/18 09:01:10;;;;;;;13.95;12.30;;;;;;;46.78;11.38;99805.81;7342207;19;20354;-65
2023/05/18 09:03:41;;;;;;;12.57;11.68;;;;;;;47.48;11.36;99812.41;7342605;19;20023;-68
2023/05/18 09:06:06;;;;;;;13.65;12.18;;;;;;;46.64;11.18;99760.13;7341014;19;20497;-67
2023/05/18 09:08:32;;;;;;;14.45;12.95;;;;;;;46.28;11.73;99803.88;7342856;19;20511;-67
2023/05/18 09:11:00;;;;;;;12.85;11.80;;;;;;;46.15;11.13;99813.41;7341441;19;20010;-66
2023/05/18 09:13:25;;;;;;;12.23;11.25;;;;;;;45.52;11.42;99787.03;7342039;19;20074;-66
2023/05/18 09:15:55;;;;;;;12.40;11.50;;;;;;;45.35;11.40;99772.19;7341509;19;20049;-66
2023/05/18 09:18:20;;;;;;;11.85;10.88;;;;;;;44.96;12.14;99796.63;7340236;19;20026;-68
2023/05/18 09:20:47;;;;;;;12.50;11.43;;;;;;;45.52;12.11;99775.78;7345085;19;20027;-65
2023/05/18 09:23:17;;;;;;;;;;;;;;;46.08;11.70;99782.09;7340650;19;20025;-67
2023/05/18 09:25:44;;;;;;;10.95;10.05;;;;;;;41.93;13.14;99773.00;7341781;19;19971;-68
2023/05/18 09:28:15;;;;;;;17.60;8.73;;;;;;;39.88;14.68;99720.94;7344723;19;20022;-67
2023/05/18 09:30:42;;;;;;;8.43;7.63;;;;;;;38.64;15.57;99703.31;7340281;19;20011;-67
2023/05/18 09:33:22;;;;;;;8.18;7.32;;;;;;;38.40;15.73;99703.22;7339813;19;20018;-67
2023/05/18 09:35:51;;;;;;;7.80;6.88;;;;;;;36.43;16.76;99704.75;7341585;19;20031;-67
2023/05/18 09:38:23;;;;;;;7.80;7.10;;;;;;;36.28;17.39;99689.75;7341708;19;20021;-65
2023/05/18 09:40:49;;;;;;;7.53;6.82;;;;;;;37.08;16.70;99689.97;7340826;19;20022;-66
2023/05/18 09:43:16;;;;;;;7.40;6.70;;;;;;;37.09;16.61;99700.78;7341365;19;20018;-65
2023/05/18 09:45:47;;;;;;;9.15;6.55;;;;;;;35.98;17.60;99698.84;7338547;19;20057;-66
2023/05/18 09:48:13;;;;;;;9.63;6.97;;;;;;;35.90;17.26;99687.44;7339356;19;20018;-67
2023/05/18 09:50:38;;;;;;;9.90;7.68;;;;;;;37.30;16.70;99686.84;7342775;19;20015;-66
2023/05/18 09:53:08;;;;;;;7.50;6.75;;;;;;;39.36;16.39;99693.13;7339132;19;20458;-67
2023/05/18 09:55:36;;;;;;;6.93;6.32;;;;;;;41.27;15.41;99682.81;7338963;19;20015;-66
2023/05/18 09:58:03;;;;;;;7.80;7.10;;;;;;;42.52;13.46;99682.25;7339100;19;20015;-67
2023/05/18 10:00:31;;;;;;;9.45;8.00;;;;;;;41.60;14.32;99691.94;7340511;19;20507;-67
2023/05/18 10:02:56;;;;;;;8.48;7.68;;;;;;;39.82;15.21;99688.63;7339012;19;20020;-67
2023/05/18 10:05:32;;;;;;;12.98;7.13;;;;;;;38.36;16.50;99686.28;7342625;19;20078;-68
2023/05/18 10:08:00;;;;;;;7.15;6.45;;;;;;;36.72;17.31;99681.69;7341405;19;20070;-65
2023/05/18 10:10:28;;;;;;;10.68;6.95;;;;;;;35.79;18.34;99688.50;7340906;19;20035;-67
2023/05/18 10:12:54;;;;;;;12.68;7.43;;;;;;;35.10;18.78;99684.06;7340999;19;20023;-66
2023/05/18 10:15:22;;;;;;;8.63;6.00;;;;;;;34.46;18.93;99672.22;7341744;19;20676;-66
2023/05/18 10:17:54;;;;;;;6.65;5.82;;;;;;;33.80;20.06;99672.41;7347776;19;20014;-67
2023/05/18 10:20:25;;;;;;;8.82;6.20;;;;;;;34.04;20.33;99675.69;7347868;19;20342;-68
2023/05/18 10:22:51;;;;;;;10.80;6.43;;;;;;;36.20;19.37;99670.84;7343820;19;20396;-66
2023/05/18 10:25:22;;;;;;;8.80;6.53;;;;;;;37.01;17.70;99659.69;7347430;19;20334;-67
2023/05/18 10:27:53;;;;;;;6.17;5.57;;;;;;;36.42;18.20;99667.81;7348448;19;20010;-65
2023/05/18 10:30:19;;;;;;;9.10;5.75;;;;;;;35.22;18.63;99664.41;7349987;19;20026;-65
2023/05/18 10:32:45;;;;;;;8.00;5.82;;;;;;;34.10;19.55;99658.03;7348082;19;20375;-66
2023/05/18 10:35:14;;;;;;;6.78;5.82;;;;;;;33.08;19.93;99666.22;7348956;19;20018;-67
2023/05/18 10:37:46;;;;;;;6.65;5.38;;;;;;;32.34;19.31;99660.13;7352194;19;20014;-66
2023/05/18 10:40:14;;;;;;;8.70;5.15;;;;;;;30.96;20.82;99659.31;7359125;19;20030;-67
2023/05/18 10:42:41;;;;;;;6.10;5.50;;;;;;;29.83;22.20;99654.00;7356883;19;20022;-67
2023/05/18 10:45:09;;;;;;;8.15;5.28;;;;;;;29.17;23.00;99665.84;7361924;19;20011;-66
2023/05/18 10:47:39;;;;;;;6.93;5.30;;;;;;;28.78;23.48;99655.34;7355804;19;20514;-67
2023/05/18 10:50:05;;;;;;;7.05;5.30;;;;;;;28.08;24.09;99649.16;7354444;19;20515;-68
2023/05/18 10:52:32;;;;;;;7.47;5.43;;;;;;;27.70;24.95;99663.75;7353498;19;20040;-65
2023/05/18 10:54:59;;;;;;;8.85;5.20;;;;;;;27.51;25.21;99663.84;7345376;19;20014;-69
2023/05/18 10:57:35;;;;;;;10.55;5.80;;;;;;;27.46;25.14;99659.84;7346914;19;20362;-71
2023/05/18 11:00:06;;;;;;;6.85;5.13;;;;;;;27.38;25.12;99660.09;7350005;19;20105;-71
2023/05/18 11:02:32;;;;;;;10.52;5.18;;;;;;;27.10;25.13;99652.19;7348783;19;20353;-70
2023/05/18 11:05:04;;;;;;;6.72;5.32;;;;;;;27.07;25.74;99646.34;7349240;19;20014;-68
2023/05/18 11:07:32;;;;;;;6.45;4.90;;;;;;;27.08;25.71;99648.03;7348615;19;20026;-67
2023/05/18 11:10:08;;;;;;;7.10;4.80;;;;;;;27.33;25.31;99646.22;7350974;19;20074;-70
2023/05/18 11:12:38;;;;;;;9.05;5.35;;;;;;;27.32;25.68;99638.22;7351568;19;20045;-73
2023/05/18 11:15:04;;;;;;;11.38;5.45;;;;;;;27.28;26.11;99631.50;7348139;19;20037;-68
2023/05/18 11:17:31;;;;;;;12.82;6.18;;;;;;;27.37;25.69;99642.00;7350087;19;20058;-66
2023/05/18 11:20:10;;;;;;;14.20;7.45;;;;;;;27.51;25.27;99634.56;7359223;19;20010;-68
2023/05/18 11:22:58;;;;;;;8.05;4.90;;;;;;;27.69;24.96;99633.81;7349392;19;20395;-66
2023/05/18 11:25:24;;;;;;;7.32;5.63;;;;;;;27.14;26.35;99624.41;7345906;19;20090;-67
2023/05/18 11:28:13;;;;;;;14.90;5.15;;;;;;;26.69;27.10;99633.38;7343714;19;20025;-66
2023/05/18 11:30:41;;;;;;;9.27;6.10;;;;;;;26.63;26.83;99630.66;7345497;19;20082;-67
2023/05/18 11:33:13;;;;;;;23.10;6.78;;;;;;;26.72;27.22;99638.41;7348763;19;20023;-65
2023/05/18 11:36:03;;;;;;;9.87;4.90;;;;;;;26.80;26.40;99633.75;7347130;19;20015;-72
2023/05/18 11:38:54;;;;;;;9.00;6.03;;;;;;;26.67;26.61;99623.69;7345701;19;20081;-67